createdAt,value
2022-09-14T00:01:44.352Z,1.13
2022-09-14T00:04:14.424Z,1.20
2022-09-14T00:06:43.531Z,1.00
2022-09-14T00:09:16.224Z,1.20
2022-09-14T00:11:44.590Z,1.20
2022-09-14T00:14:13.400Z,1.10
2022-09-14T00:16:44.020Z,1.15
2022-09-14T00:19:19.240Z,1.10
2022-09-14T00:21:51.107Z,0.90
2022-09-14T00:24:20.359Z,1.00
2022-09-14T00:26:48.683Z,1.20
2022-09-14T00:29:17.228Z,1.20
2022-09-14T00:31:47.078Z,1.10
2022-09-14T00:34:17.298Z,1.10
2022-09-14T00:36:48.202Z,1.27
2022-09-14T00:39:17.331Z,1.20
2022-09-14T00:41:47.948Z,1.20
2022-09-14T00:44:54.994Z,1.35
2022-09-14T00:47:26.077Z,1.20
2022-09-14T00:49:55.085Z,1.30
2022-09-14T00:52:27.161Z,1.38
2022-09-14T00:54:58.506Z,1.20
2022-09-14T00:57:30.163Z,1.45
2022-09-14T00:59:59.376Z,1.40
2022-09-14T01:02:30.039Z,1.20
2022-09-14T01:04:58.855Z,1.20
2022-09-14T01:07:42.161Z,1.10
2022-09-14T01:10:29.454Z,1.08
2022-09-14T01:13:08.467Z,1.30
2022-09-14T01:15:46.339Z,1.48
2022-09-14T01:18:22.297Z,1.17
2022-09-14T01:20:56.669Z,1.33
2022-09-14T01:23:36.826Z,1.20
2022-09-14T01:26:28.162Z,1.10
2022-09-14T01:29:00.493Z,1.60
2022-09-14T01:31:32.341Z,1.20
2022-09-14T01:34:09.565Z,1.15
2022-09-14T01:36:41.657Z,1.10
2022-09-14T01:39:12.305Z,1.23
2022-09-14T01:41:42.487Z,1.25
2022-09-14T01:44:17.709Z,1.20
2022-09-14T01:46:49.879Z,1.38
2022-09-14T01:49:21.055Z,1.33
2022-09-14T01:51:53.506Z,1.30
2022-09-14T01:54:27.146Z,1.00
2022-09-14T01:57:01.350Z,1.30
2022-09-14T01:59:33.890Z,1.15
2022-09-14T02:02:06.886Z,1.10
2022-09-14T02:04:40.554Z,1.20
2022-09-14T02:07:09.046Z,1.20
2022-09-14T02:09:37.551Z,1.27
2022-09-14T02:12:06.818Z,1.40
2022-09-14T02:14:36.751Z,1.23
2022-09-14T02:17:05.220Z,1.20
2022-09-14T02:19:38.617Z,1.40
2022-09-14T02:22:07.004Z,1.40
2022-09-14T02:24:37.075Z,1.20
2022-09-14T02:27:07.426Z,1.50
2022-09-14T02:29:37.782Z,1.40
2022-09-14T02:32:16.607Z,1.55
2022-09-14T02:34:54.891Z,1.30
2022-09-14T02:37:30.763Z,1.30
2022-09-14T02:40:07.550Z,1.40
2022-09-14T02:42:43.594Z,1.23
2022-09-14T02:45:22.873Z,1.17
2022-09-14T02:47:58.242Z,1.40
2022-09-14T02:50:35.313Z,1.30
2022-09-14T02:53:09.356Z,1.40
2022-09-14T02:55:41.597Z,1.48
2022-09-14T02:58:12.107Z,1.40
2022-09-14T03:00:44.365Z,1.33
2022-09-14T03:03:16.562Z,1.23
2022-09-14T03:05:45.216Z,1.30
2022-09-14T03:08:13.945Z,1.35
2022-09-14T03:10:44.370Z,1.40
2022-09-14T03:13:12.818Z,1.30
2022-09-14T03:15:42.769Z,1.38
2022-09-14T03:18:14.513Z,1.35
2022-09-14T03:20:43.321Z,1.40
2022-09-14T03:23:12.428Z,1.35
2022-09-14T03:25:43.506Z,1.35
2022-09-14T03:28:13.277Z,1.50
2022-09-14T03:30:43.217Z,1.50
2022-09-14T03:33:11.513Z,1.40
2022-09-14T03:35:39.781Z,1.40
2022-09-14T03:38:08.197Z,1.40
2022-09-14T03:40:36.515Z,1.42
2022-09-14T03:43:04.888Z,1.30
2022-09-14T03:45:33.208Z,1.58
2022-09-14T03:48:03.090Z,1.20
2022-09-14T03:50:31.462Z,1.20
2022-09-14T03:52:59.733Z,1.20
2022-09-14T03:55:28.101Z,1.30
2022-09-14T03:57:56.668Z,1.17
2022-09-14T04:00:25.199Z,1.10
2022-09-14T04:02:53.682Z,1.20
2022-09-14T04:05:23.562Z,1.15
2022-09-14T04:07:51.856Z,1.10
2022-09-14T04:10:20.419Z,1.33
2022-09-14T04:12:49.018Z,1.20
2022-09-14T04:15:17.451Z,1.63
2022-09-14T04:17:45.769Z,1.73
2022-09-14T04:20:14.059Z,1.27
2022-09-14T04:22:43.779Z,1.58
2022-09-14T04:25:12.032Z,1.38
2022-09-14T04:27:40.445Z,1.45
2022-09-14T04:30:09.435Z,1.40
2022-09-14T04:32:37.799Z,1.80
2022-09-14T04:35:06.687Z,1.40
2022-09-14T04:37:35.008Z,1.60
2022-09-14T04:40:05.462Z,1.40
2022-09-14T04:42:33.885Z,1.65
2022-09-14T04:45:02.176Z,1.30
2022-09-14T04:47:31.113Z,1.10
2022-09-14T04:49:59.478Z,1.80
2022-09-14T04:52:27.799Z,1.60
2022-09-14T04:54:56.111Z,1.60
2022-09-14T04:57:25.911Z,1.60
2022-09-14T04:59:54.191Z,1.20
2022-09-14T05:02:22.535Z,1.30
2022-09-14T05:04:51.092Z,1.33
2022-09-14T05:07:19.343Z,1.40
2022-09-14T05:09:47.642Z,1.58
2022-09-14T05:12:15.910Z,1.58
2022-09-14T05:14:46.216Z,1.73
2022-09-14T05:17:14.487Z,1.30
2022-09-14T05:19:42.794Z,1.42
2022-09-14T05:22:11.117Z,1.60
2022-09-14T05:24:39.476Z,1.50
2022-09-14T05:27:07.845Z,1.40
2022-09-14T05:29:36.278Z,1.50
2022-09-14T05:32:06.389Z,1.45
2022-09-14T05:34:34.709Z,1.80
2022-09-14T05:37:03.024Z,1.73
2022-09-14T05:39:31.334Z,1.67
2022-09-14T05:41:59.616Z,1.80
2022-09-14T05:44:27.904Z,1.80
2022-09-14T05:46:56.107Z,1.70
2022-09-14T05:49:25.851Z,1.60
2022-09-14T05:51:54.095Z,2.10
2022-09-14T05:54:22.453Z,2.55
2022-09-14T05:56:50.700Z,2.92
2022-09-14T05:59:18.972Z,2.45
2022-09-14T06:01:47.316Z,3.03
2022-09-14T06:04:15.663Z,2.53
2022-09-14T06:07:01.492Z,2.85
2022-09-14T06:09:33.834Z,2.40
2022-09-14T06:12:02.247Z,2.20
2022-09-14T06:14:30.627Z,1.80
2022-09-14T06:17:00.760Z,2.17
2022-09-14T06:19:29.056Z,2.10
2022-09-14T06:21:59.188Z,1.90
2022-09-14T06:24:27.427Z,2.00
2022-09-14T06:26:55.792Z,1.85
2022-09-14T06:29:24.040Z,2.25
2022-09-14T06:31:52.354Z,2.30
2022-09-14T06:34:20.853Z,2.55
2022-09-14T06:36:49.437Z,2.50
2022-09-14T06:39:19.427Z,2.80
2022-09-14T06:41:47.702Z,2.38
2022-09-14T06:44:15.964Z,2.92
2022-09-14T06:46:47.630Z,2.60
2022-09-14T06:49:20.620Z,2.58
2022-09-14T06:51:49.077Z,2.50
2022-09-14T06:54:19.590Z,2.47
2022-09-14T06:56:48.301Z,2.20
2022-09-14T06:59:18.193Z,2.38
2022-09-14T07:01:49.402Z,2.28
2022-09-14T07:04:18.135Z,2.15
2022-09-14T07:06:47.383Z,2.22
2022-09-14T07:09:16.674Z,2.20
2022-09-14T07:11:47.098Z,2.20
2022-09-14T07:14:15.395Z,2.20
2022-09-14T07:16:43.669Z,2.00
2022-09-14T07:19:14.063Z,1.83
2022-09-14T07:21:42.776Z,1.70
2022-09-14T07:24:13.146Z,2.40
2022-09-14T07:26:43.122Z,2.50
2022-09-14T07:29:14.745Z,3.38
2022-09-14T07:31:44.727Z,3.85
2022-09-14T07:34:13.674Z,6.72
2022-09-14T07:36:43.038Z,6.70
2022-09-14T07:39:14.223Z,6.15
2022-09-14T07:41:43.541Z,5.38
2022-09-14T07:44:16.635Z,4.85
2022-09-14T07:46:46.466Z,4.30
2022-09-14T07:49:15.693Z,3.80
2022-09-14T07:51:44.426Z,3.25
2022-09-14T07:54:14.724Z,3.35
2022-09-14T07:56:43.674Z,4.75
2022-09-14T07:59:35.207Z,9.27
2022-09-14T08:02:04.575Z,10.15
2022-09-14T08:04:32.875Z,8.85
2022-09-14T08:07:02.189Z,6.80
2022-09-14T08:09:30.705Z,5.10
2022-09-14T08:11:58.948Z,4.30
2022-09-14T08:14:28.695Z,3.47
2022-09-14T08:16:57.408Z,2.90
2022-09-14T08:19:26.493Z,2.60
2022-09-14T08:21:54.804Z,2.35
2022-09-14T08:24:23.580Z,2.70
2022-09-14T08:26:52.334Z,3.53
2022-09-14T08:29:21.327Z,3.60
2022-09-14T08:31:52.185Z,4.90
2022-09-14T08:34:21.470Z,5.72
2022-09-14T08:36:50.419Z,5.28
2022-09-14T08:39:19.330Z,5.07
2022-09-14T08:41:54.004Z,5.13
2022-09-14T08:44:26.012Z,5.20
2022-09-14T08:47:01.985Z,4.30
2022-09-14T08:49:49.162Z,3.53
2022-09-14T08:52:24.328Z,3.33
2022-09-14T08:54:55.823Z,3.20
2022-09-14T08:57:29.968Z,2.92
2022-09-14T09:00:09.666Z,2.63
2022-09-14T09:02:56.954Z,2.50
2022-09-14T09:05:33.577Z,2.05
2022-09-14T09:08:10.373Z,2.45
2022-09-14T09:10:41.104Z,1.80
2022-09-14T09:13:14.188Z,2.03
2022-09-14T09:15:47.487Z,1.83
2022-09-14T09:18:23.698Z,1.73
2022-09-14T09:20:53.778Z,1.40
2022-09-14T09:23:24.041Z,1.90
2022-09-14T09:25:56.838Z,2.40
2022-09-14T09:28:26.849Z,2.30
2022-09-14T09:30:57.889Z,1.98
2022-09-14T09:33:29.233Z,2.22
2022-09-14T09:35:58.109Z,1.90
2022-09-14T09:38:30.463Z,1.75
2022-09-14T09:41:03.031Z,1.85
2022-09-14T09:43:48.805Z,1.73
2022-09-14T09:46:19.100Z,1.75
2022-09-14T09:48:49.153Z,1.60
2022-09-14T09:51:26.754Z,1.70
2022-09-14T09:54:01.708Z,1.77
2022-09-14T09:56:37.382Z,1.60
2022-09-14T09:59:24.187Z,1.92
2022-09-14T10:01:54.284Z,1.20
2022-09-14T10:04:28.189Z,1.83
2022-09-14T10:06:57.876Z,1.58
2022-09-14T10:09:28.637Z,1.40
2022-09-14T10:12:01.729Z,1.20
2022-09-14T10:14:32.673Z,1.67
2022-09-14T10:17:16.156Z,1.80
2022-09-14T10:19:51.606Z,1.73
2022-09-14T10:22:26.798Z,1.80
2022-09-14T10:24:57.945Z,1.40
2022-09-14T10:27:48.614Z,1.95
2022-09-14T10:30:19.557Z,2.35
2022-09-14T10:32:56.456Z,2.13
2022-09-14T10:35:37.587Z,2.03
2022-09-14T10:38:22.582Z,1.88
2022-09-14T10:40:59.276Z,1.90
2022-09-14T10:43:38.574Z,1.73
2022-09-14T10:46:13.995Z,1.80
2022-09-14T10:49:05.521Z,1.77
2022-09-14T10:51:47.423Z,1.95
2022-09-14T10:54:29.034Z,1.80
2022-09-14T10:57:08.250Z,1.73
2022-09-14T10:59:48.893Z,1.77
2022-09-14T11:02:58.986Z,1.55
2022-09-14T11:05:31.697Z,1.55
2022-09-14T11:08:12.833Z,1.60
2022-09-14T11:10:54.049Z,1.42
2022-09-14T11:13:38.838Z,1.88
2022-09-14T11:16:18.446Z,1.70
2022-09-14T11:18:55.443Z,1.67
2022-09-14T11:21:37.158Z,1.80
2022-09-14T11:24:14.143Z,1.73
2022-09-14T11:26:45.876Z,2.00
2022-09-14T11:29:20.332Z,2.10
2022-09-14T11:32:19.331Z,1.60
2022-09-14T11:34:48.898Z,1.85
2022-09-14T11:37:21.412Z,2.10
2022-09-14T11:39:58.077Z,2.20
2022-09-14T11:42:33.655Z,2.13
2022-09-14T11:45:07.959Z,1.88
2022-09-14T11:47:43.915Z,1.73
2022-09-14T11:50:19.813Z,1.70
2022-09-14T11:52:51.734Z,2.08
2022-09-14T11:55:21.825Z,1.90
2022-09-14T11:57:51.034Z,2.00
2022-09-14T12:00:55.686Z,1.80
2022-09-14T12:03:49.754Z,2.05
2022-09-14T12:06:56.935Z,1.80
2022-09-14T12:09:55.335Z,1.75
2022-09-14T12:12:39.977Z,1.70
2022-09-14T12:15:22.800Z,1.70
2022-09-14T12:17:52.138Z,1.60
2022-09-14T12:20:43.157Z,1.80
2022-09-14T12:23:27.058Z,1.70
2022-09-14T12:26:31.390Z,1.80
2022-09-14T12:29:06.887Z,1.90
2022-09-14T12:32:17.273Z,1.70
2022-09-14T12:34:45.938Z,1.80
2022-09-14T12:37:32.656Z,1.92
2022-09-14T12:40:36.431Z,1.55
2022-09-14T12:43:50.445Z,1.80
2022-09-14T12:46:39.862Z,1.58
2022-09-14T12:49:33.535Z,1.77
2022-09-14T12:52:25.572Z,1.73
2022-09-14T12:55:08.078Z,1.60
2022-09-14T12:57:44.053Z,1.40
2022-09-14T13:00:15.668Z,1.30
2022-09-14T13:03:19.044Z,1.67
2022-09-14T13:05:47.879Z,1.63
2022-09-14T13:08:21.934Z,1.30
2022-09-14T13:10:52.649Z,1.40
2022-09-14T13:13:23.913Z,1.42
2022-09-14T13:15:55.450Z,1.20
2022-09-14T13:18:33.579Z,1.40
2022-09-14T13:21:03.536Z,1.38
2022-09-14T13:23:37.580Z,1.70
2022-09-14T13:26:13.337Z,1.30
2022-09-14T13:28:45.884Z,1.38
2022-09-14T13:31:18.056Z,1.40
2022-09-14T13:33:54.581Z,1.50
2022-09-14T13:36:25.333Z,1.48
2022-09-14T13:38:54.420Z,1.45
2022-09-14T13:41:24.363Z,1.40
2022-09-14T13:43:55.536Z,1.50
2022-09-14T13:46:26.244Z,1.40
2022-09-14T13:48:57.478Z,1.42
2022-09-14T13:51:27.665Z,1.20
2022-09-14T13:53:57.925Z,1.27
2022-09-14T13:56:31.552Z,1.60
2022-09-14T13:59:23.302Z,1.45
2022-09-14T14:01:58.462Z,1.65
2022-09-14T14:04:35.950Z,1.30
2022-09-14T14:07:16.362Z,1.30
2022-09-14T14:09:48.025Z,1.40
2022-09-14T14:12:25.043Z,1.30
2022-09-14T14:14:58.622Z,1.50
2022-09-14T14:17:38.311Z,1.30
2022-09-14T14:20:34.692Z,1.50
2022-09-14T14:23:20.118Z,1.52
2022-09-14T14:25:52.112Z,1.15
2022-09-14T14:28:24.537Z,1.35
2022-09-14T14:30:54.364Z,1.33
2022-09-14T14:33:23.451Z,1.55
2022-09-14T14:35:56.554Z,1.50
2022-09-14T14:38:25.900Z,1.60
2022-09-14T14:43:25.387Z,1.55
2022-09-14T14:45:55.992Z,1.50
2022-09-14T14:48:24.962Z,1.20
2022-09-14T14:50:55.687Z,1.45
2022-09-14T14:53:24.562Z,1.30
2022-09-14T14:55:53.465Z,1.50
2022-09-14T14:58:23.117Z,1.30
2022-09-14T15:00:52.258Z,1.60
2022-09-14T15:03:20.866Z,1.48
2022-09-14T15:05:50.460Z,1.50
2022-09-14T15:08:20.989Z,1.30
2022-09-14T15:10:49.805Z,1.75
2022-09-14T15:13:18.183Z,1.70
2022-09-14T15:15:46.651Z,1.88
2022-09-14T15:18:15.023Z,1.58
2022-09-14T15:20:44.140Z,1.90
2022-09-14T15:23:14.228Z,2.03
2022-09-14T15:25:44.364Z,1.90
2022-09-14T15:28:12.678Z,1.98
2022-09-14T15:30:41.825Z,2.00
2022-09-14T15:33:10.272Z,1.80
2022-09-14T15:35:39.148Z,1.60
2022-09-14T15:38:07.821Z,1.63
2022-09-14T15:40:36.421Z,1.73
2022-09-14T15:43:06.277Z,1.52
2022-09-14T15:45:34.905Z,1.65
2022-09-14T15:48:04.179Z,1.90
2022-09-14T15:50:32.547Z,1.70
2022-09-14T15:53:02.824Z,1.83
2022-09-14T15:55:31.642Z,1.80
2022-09-14T15:58:00.076Z,2.63
2022-09-14T16:00:29.873Z,1.40
2022-09-14T16:02:58.319Z,2.00
2022-09-14T16:05:26.765Z,1.67
2022-09-14T16:07:56.379Z,1.80
2022-09-14T16:10:26.138Z,1.67
2022-09-14T16:12:55.478Z,1.63
2022-09-14T16:15:24.298Z,1.90
2022-09-14T16:17:55.807Z,1.90
2022-09-14T16:20:24.818Z,2.00
2022-09-14T16:22:53.457Z,1.80
2022-09-14T16:25:22.377Z,2.08
2022-09-14T16:27:50.721Z,1.90
2022-09-14T16:30:19.593Z,1.70
2022-09-14T16:32:48.830Z,1.95
2022-09-14T16:35:18.930Z,1.98
2022-09-14T16:37:47.212Z,1.95
2022-09-14T16:40:16.047Z,1.80
2022-09-14T16:42:47.095Z,1.77
2022-09-14T16:45:15.947Z,1.65
2022-09-14T16:47:44.804Z,1.95
2022-09-14T16:50:13.610Z,1.88
2022-09-14T16:52:43.541Z,1.80
2022-09-14T16:55:11.827Z,1.80
2022-09-14T16:57:40.299Z,1.80
2022-09-14T17:00:10.320Z,2.05
2022-09-14T17:02:38.673Z,1.67
2022-09-14T17:05:08.144Z,2.03
2022-09-14T17:07:36.491Z,1.92
2022-09-14T17:10:07.751Z,2.00
2022-09-14T17:12:36.126Z,1.73
2022-09-14T17:15:04.493Z,1.88
2022-09-14T17:17:32.874Z,1.90
2022-09-14T17:20:01.220Z,1.70
2022-09-14T17:22:29.511Z,1.70
2022-09-14T17:24:57.828Z,1.92
2022-09-14T17:27:27.738Z,1.73
2022-09-14T17:29:56.227Z,2.00
2022-09-14T17:32:24.612Z,2.00
2022-09-14T17:34:54.744Z,1.90
2022-09-14T17:37:23.953Z,1.90
2022-09-14T17:39:52.638Z,1.90
2022-09-14T17:42:21.319Z,1.70
2022-09-14T17:44:51.113Z,1.70
2022-09-14T17:47:19.784Z,1.58
2022-09-14T17:49:48.129Z,1.50
2022-09-14T17:52:16.564Z,1.67
2022-09-14T17:54:44.998Z,1.40
2022-09-14T17:57:13.311Z,1.35
2022-09-14T17:59:42.040Z,1.52
2022-09-14T18:02:12.539Z,1.50
2022-09-14T18:04:44.328Z,1.45
2022-09-14T18:07:16.720Z,1.60
2022-09-14T18:09:45.112Z,1.75
2022-09-14T18:12:15.921Z,1.70
2022-09-14T18:14:44.947Z,1.73
2022-09-14T18:17:14.904Z,2.00
2022-09-14T18:19:43.751Z,2.10
2022-09-14T18:22:12.097Z,2.28
2022-09-14T18:24:40.552Z,2.45
2022-09-14T18:27:08.969Z,2.60
2022-09-14T18:29:37.353Z,2.65
2022-09-14T18:32:06.373Z,2.90
2022-09-14T18:34:36.336Z,2.55
2022-09-14T18:37:04.636Z,2.38
2022-09-14T18:39:33.462Z,2.65
2022-09-14T18:42:01.918Z,2.20
2022-09-14T18:44:30.291Z,2.40
2022-09-14T18:46:58.723Z,2.03
2022-09-14T18:49:27.215Z,2.03
2022-09-14T18:51:57.013Z,2.15
2022-09-14T18:54:27.850Z,2.00
2022-09-14T18:56:56.365Z,2.17
2022-09-14T18:59:24.667Z,1.80
2022-09-14T19:01:53.016Z,1.80
2022-09-14T19:04:21.413Z,1.48
2022-09-14T19:06:49.814Z,1.40
2022-09-14T19:09:19.597Z,2.05
2022-09-14T19:11:47.899Z,2.08
2022-09-14T19:14:17.600Z,1.90
2022-09-14T19:16:45.934Z,1.75
2022-09-14T19:19:16.955Z,1.90
2022-09-14T19:21:46.634Z,2.17
2022-09-14T19:24:18.476Z,1.83
2022-09-14T19:26:49.439Z,1.90
2022-09-14T19:29:21.541Z,2.08
2022-09-14T19:31:51.729Z,2.08
2022-09-14T19:34:21.391Z,1.95
2022-09-14T19:36:49.937Z,2.05
2022-09-14T19:39:19.696Z,2.30
2022-09-14T19:41:48.709Z,1.67
2022-09-14T19:44:17.943Z,2.00
2022-09-14T19:46:46.497Z,1.80
2022-09-14T19:49:16.720Z,2.05
2022-09-14T19:51:45.123Z,1.77
2022-09-14T19:54:14.242Z,1.65
2022-09-14T19:56:46.193Z,1.92
2022-09-14T19:59:15.435Z,1.80
2022-09-14T20:01:44.371Z,1.52
2022-09-14T20:04:13.412Z,1.67
2022-09-14T20:06:44.492Z,1.98
2022-09-14T20:09:16.018Z,1.80
2022-09-14T20:11:47.526Z,1.60
2022-09-14T20:14:17.810Z,1.60
2022-09-14T20:16:47.944Z,1.50
2022-09-14T20:19:18.992Z,1.27
2022-09-14T20:21:49.300Z,1.40
2022-09-14T20:24:19.756Z,1.90
2022-09-14T20:26:51.849Z,1.83
2022-09-14T20:29:22.992Z,1.80
2022-09-14T20:31:51.920Z,1.85
2022-09-14T20:34:21.962Z,1.88
2022-09-14T20:36:51.420Z,1.88
2022-09-14T20:39:24.797Z,1.55
2022-09-14T20:41:54.701Z,1.52
2022-09-14T20:44:23.373Z,1.40
2022-09-14T20:46:52.383Z,1.50
2022-09-14T20:49:22.925Z,1.60
2022-09-14T20:51:52.794Z,1.77
2022-09-14T20:54:21.574Z,1.40
2022-09-14T20:56:50.081Z,1.60
2022-09-14T20:59:22.281Z,1.58
2022-09-14T21:01:52.687Z,1.40
2022-09-14T21:04:23.721Z,1.42
2022-09-14T21:06:55.392Z,1.65
2022-09-14T21:09:25.681Z,1.50
2022-09-14T21:11:54.470Z,1.48
2022-09-14T21:14:24.532Z,1.25
2022-09-14T21:16:55.491Z,1.60
2022-09-14T21:19:26.048Z,1.20
2022-09-14T21:21:54.627Z,1.42
2022-09-14T21:24:24.229Z,1.25
2022-09-14T21:26:52.945Z,1.33
2022-09-14T21:29:24.746Z,1.42
2022-09-14T21:31:53.465Z,1.30
2022-09-14T21:34:22.006Z,1.50
2022-09-14T21:36:52.606Z,1.20
2022-09-14T21:39:23.287Z,1.70
2022-09-14T21:41:58.028Z,1.35
2022-09-14T21:44:32.053Z,1.30
2022-09-14T21:47:00.926Z,1.60
2022-09-14T21:49:29.855Z,1.30
2022-09-14T21:51:58.369Z,1.50
2022-09-14T21:54:28.066Z,1.20
2022-09-14T21:56:56.463Z,1.38
2022-09-14T21:59:25.050Z,1.38
2022-09-14T22:01:54.830Z,1.27
2022-09-14T22:04:25.043Z,1.42
2022-09-14T22:06:53.735Z,1.15
2022-09-14T22:09:25.629Z,1.50
2022-09-14T22:11:55.410Z,1.85
2022-09-14T22:14:25.994Z,1.25
2022-09-14T22:16:56.123Z,1.88
2022-09-14T22:19:28.644Z,1.60
2022-09-14T22:21:57.782Z,1.70
2022-09-14T22:24:28.074Z,1.63
2022-09-14T22:26:57.503Z,1.60
2022-09-14T22:29:26.004Z,1.25
2022-09-14T22:31:56.179Z,1.25
2022-09-14T22:34:24.817Z,1.40
2022-09-14T22:36:53.120Z,1.02
2022-09-14T22:39:21.658Z,1.20
2022-09-14T22:41:50.687Z,1.55
2022-09-14T22:44:19.066Z,1.23
2022-09-14T22:46:47.550Z,1.30
2022-09-14T22:49:17.664Z,1.40
2022-09-14T22:51:46.155Z,1.40
2022-09-14T22:54:14.584Z,1.67
2022-09-14T22:56:42.992Z,1.63
2022-09-14T22:59:11.950Z,1.52
2022-09-14T23:01:42.295Z,1.30
2022-09-14T23:04:12.847Z,1.40
2022-09-14T23:06:43.825Z,1.25
2022-09-14T23:09:14.374Z,1.30
2022-09-14T23:11:44.728Z,1.35
2022-09-14T23:14:13.218Z,1.20
2022-09-14T23:16:41.663Z,1.30
2022-09-14T23:19:13.038Z,1.17
2022-09-14T23:21:42.793Z,1.23
2022-09-14T23:24:12.320Z,1.17
2022-09-14T23:26:40.955Z,1.10
2022-09-14T23:29:13.572Z,1.30
2022-09-14T23:31:41.839Z,1.10
2022-09-14T23:34:10.271Z,1.20
2022-09-14T23:36:38.609Z,1.30
2022-09-14T23:39:08.416Z,1.30
2022-09-14T23:41:36.724Z,1.33
2022-09-14T23:44:05.013Z,1.30
2022-09-14T23:46:33.413Z,1.00
2022-09-14T23:49:01.812Z,1.30
2022-09-14T23:51:30.149Z,1.33
2022-09-14T23:53:58.547Z,1.25
2022-09-14T23:56:28.327Z,1.27
2022-09-14T23:58:57.012Z,1.48
